sensor_id;sensor_type;location;lat;lon;timestamp;temperature;humidity
23237;DHT22;11787;52.018;8.570;2023-03-14T00:01:07;11.30;99.90
23237;DHT22;11787;52.018;8.570;2023-03-14T00:03:33;11.30;99.90
23237;DHT22;11787;52.018;8.570;2023-03-14T00:06:01;11.30;99.90
23237;DHT22;11787;52.018;8.570;2023-03-14T00:08:27;11.30;99.90
23237;DHT22;11787;52.018;8.570;2023-03-14T00:10:52;11.30;99.90
23237;DHT22;11787;52.018;8.570;2023-03-14T00:13:18;11.30;99.90
23237;DHT22;11787;52.018;8.570;2023-03-14T00:15:43;11.30;99.90
23237;DHT22;11787;52.018;8.570;2023-03-14T00:18:09;11.30;99.90
23237;DHT22;11787;52.018;8.570;2023-03-14T00:20:34;11.30;99.90
23237;DHT22;11787;52.018;8.570;2023-03-14T00:23:00;11.30;99.90
23237;DHT22;11787;52.018;8.570;2023-03-14T00:25:25;11.30;99.90
23237;DHT22;11787;52.018;8.570;2023-03-14T00:27:51;11.30;99.90
23237;DHT22;11787;52.018;8.570;2023-03-14T00:30:17;11.30;99.90
23237;DHT22;11787;52.018;8.570;2023-03-14T00:32:42;11.20;99.90
23237;DHT22;11787;52.018;8.570;2023-03-14T00:35:08;11.30;99.90
23237;DHT22;11787;52.018;8.570;2023-03-14T00:37:34;11.20;99.90
23237;DHT22;11787;52.018;8.570;2023-03-14T00:39:59;11.20;99.90
23237;DHT22;11787;52.018;8.570;2023-03-14T00:42:25;11.20;99.90
23237;DHT22;11787;52.018;8.570;2023-03-14T00:44:50;11.20;99.90
23237;DHT22;11787;52.018;8.570;2023-03-14T00:47:16;11.20;99.90
23237;DHT22;11787;52.018;8.570;2023-03-14T00:49:41;11.20;99.90
23237;DHT22;11787;52.018;8.570;2023-03-14T00:52:08;11.20;99.90
23237;DHT22;11787;52.018;8.570;2023-03-14T00:54:34;11.20;99.90
23237;DHT22;11787;52.018;8.570;2023-03-14T00:57:00;11.20;99.90
23237;DHT22;11787;52.018;8.570;2023-03-14T00:59:25;11.20;99.90
23237;DHT22;11787;52.018;8.570;2023-03-14T01:01:51;11.20;99.90
23237;DHT22;11787;52.018;8.570;2023-03-14T01:04:16;11.30;99.90
23237;DHT22;11787;52.018;8.570;2023-03-14T01:06:42;11.20;99.90
23237;DHT22;11787;52.018;8.570;2023-03-14T01:09:07;11.20;99.90
23237;DHT22;11787;52.018;8.570;2023-03-14T01:11:34;11.30;99.90
23237;DHT22;11787;52.018;8.570;2023-03-14T01:14:00;11.20;99.90
23237;DHT22;11787;52.018;8.570;2023-03-14T01:16:26;11.30;99.90
23237;DHT22;11787;52.018;8.570;2023-03-14T01:18:52;11.30;99.90
23237;DHT22;11787;52.018;8.570;2023-03-14T01:21:22;11.30;99.90
23237;DHT22;11787;52.018;8.570;2023-03-14T01:23:48;11.30;99.90
23237;DHT22;11787;52.018;8.570;2023-03-14T01:26:15;11.30;99.90
23237;DHT22;11787;52.018;8.570;2023-03-14T01:28:40;11.30;99.90
23237;DHT22;11787;52.018;8.570;2023-03-14T01:31:07;11.30;99.90
23237;DHT22;11787;52.018;8.570;2023-03-14T01:33:33;11.40;99.90
23237;DHT22;11787;52.018;8.570;2023-03-14T01:35:58;11.30;99.90
23237;DHT22;11787;52.018;8.570;2023-03-14T01:38:24;11.30;99.90
23237;DHT22;11787;52.018;8.570;2023-03-14T01:40:50;11.30;99.90
23237;DHT22;11787;52.018;8.570;2023-03-14T01:43:17;11.30;99.90
23237;DHT22;11787;52.018;8.570;2023-03-14T01:48:28;11.30;99.90
23237;DHT22;11787;52.018;8.570;2023-03-14T01:50:56;11.30;99.90
23237;DHT22;11787;52.018;8.570;2023-03-14T01:53:21;11.30;99.90
23237;DHT22;11787;52.018;8.570;2023-03-14T01:55:48;11.30;99.90
23237;DHT22;11787;52.018;8.570;2023-03-14T01:58:13;11.40;99.90
23237;DHT22;11787;52.018;8.570;2023-03-14T02:00:40;11.30;99.90
23237;DHT22;11787;52.018;8.570;2023-03-14T02:03:07;11.40;99.90
23237;DHT22;11787;52.018;8.570;2023-03-14T02:05:35;11.40;99.90
23237;DHT22;11787;52.018;8.570;2023-03-14T02:08:04;11.30;99.90
23237;DHT22;11787;52.018;8.570;2023-03-14T02:10:32;11.30;99.90
23237;DHT22;11787;52.018;8.570;2023-03-14T02:12:59;11.30;99.90
23237;DHT22;11787;52.018;8.570;2023-03-14T02:15:26;11.30;99.90
23237;DHT22;11787;52.018;8.570;2023-03-14T02:17:51;11.30;99.90
23237;DHT22;11787;52.018;8.570;2023-03-14T02:22:44;11.30;99.90
23237;DHT22;11787;52.018;8.570;2023-03-14T02:27:39;11.30;99.90
23237;DHT22;11787;52.018;8.570;2023-03-14T02:30:08;11.30;99.90
23237;DHT22;11787;52.018;8.570;2023-03-14T02:32:35;11.30;99.90
23237;DHT22;11787;52.018;8.570;2023-03-14T02:35:03;11.20;99.90
23237;DHT22;11787;52.018;8.570;2023-03-14T02:40:20;10.40;99.90
23237;DHT22;11787;52.018;8.570;2023-03-14T02:42:46;10.20;99.90
23237;DHT22;11787;52.018;8.570;2023-03-14T02:47:37;9.90;99.90
23237;DHT22;11787;52.018;8.570;2023-03-14T02:50:08;9.80;99.90
23237;DHT22;11787;52.018;8.570;2023-03-14T02:52:34;9.80;99.90
23237;DHT22;11787;52.018;8.570;2023-03-14T02:55:00;9.80;99.90
23237;DHT22;11787;52.018;8.570;2023-03-14T02:57:25;9.70;99.90
23237;DHT22;11787;52.018;8.570;2023-03-14T02:59:51;9.70;99.90
23237;DHT22;11787;52.018;8.570;2023-03-14T03:02:16;9.70;99.90
23237;DHT22;11787;52.018;8.570;2023-03-14T03:04:42;9.60;99.90
23237;DHT22;11787;52.018;8.570;2023-03-14T03:07:07;9.60;99.90
23237;DHT22;11787;52.018;8.570;2023-03-14T03:09:33;9.60;99.90
23237;DHT22;11787;52.018;8.570;2023-03-14T03:11:58;9.60;99.90
23237;DHT22;11787;52.018;8.570;2023-03-14T03:14:24;9.50;99.90
23237;DHT22;11787;52.018;8.570;2023-03-14T03:16:49;9.50;99.90
23237;DHT22;11787;52.018;8.570;2023-03-14T03:19:15;9.40;99.90
23237;DHT22;11787;52.018;8.570;2023-03-14T03:21:42;9.40;99.90
23237;DHT22;11787;52.018;8.570;2023-03-14T03:24:07;9.40;99.90
23237;DHT22;11787;52.018;8.570;2023-03-14T03:26:34;9.30;99.90
23237;DHT22;11787;52.018;8.570;2023-03-14T03:28:59;9.30;99.90
23237;DHT22;11787;52.018;8.570;2023-03-14T03:31:25;9.40;99.90
23237;DHT22;11787;52.018;8.570;2023-03-14T03:33:50;9.40;99.90
23237;DHT22;11787;52.018;8.570;2023-03-14T03:36:20;9.30;99.90
23237;DHT22;11787;52.018;8.570;2023-03-14T03:38:45;9.30;99.90
23237;DHT22;11787;52.018;8.570;2023-03-14T03:41:11;9.30;99.90
23237;DHT22;11787;52.018;8.570;2023-03-14T03:43:37;9.30;99.90
23237;DHT22;11787;52.018;8.570;2023-03-14T03:46:03;9.30;99.90
23237;DHT22;11787;52.018;8.570;2023-03-14T03:48:29;9.30;99.90
23237;DHT22;11787;52.018;8.570;2023-03-14T03:50:54;9.30;99.90
23237;DHT22;11787;52.018;8.570;2023-03-14T03:53:20;9.20;99.90
23237;DHT22;11787;52.018;8.570;2023-03-14T03:55:45;9.20;99.90
23237;DHT22;11787;52.018;8.570;2023-03-14T03:58:11;9.20;99.90
23237;DHT22;11787;52.018;8.570;2023-03-14T04:00:36;9.20;99.90
23237;DHT22;11787;52.018;8.570;2023-03-14T04:03:01;9.10;99.90
23237;DHT22;11787;52.018;8.570;2023-03-14T04:05:27;9.20;99.90
23237;DHT22;11787;52.018;8.570;2023-03-14T04:07:52;9.20;99.90
23237;DHT22;11787;52.018;8.570;2023-03-14T04:10:18;9.20;99.90
23237;DHT22;11787;52.018;8.570;2023-03-14T04:12:43;9.20;99.90
23237;DHT22;11787;52.018;8.570;2023-03-14T04:15:09;9.20;99.90
23237;DHT22;11787;52.018;8.570;2023-03-14T04:17:35;9.10;99.90
23237;DHT22;11787;52.018;8.570;2023-03-14T04:20:00;9.10;99.90
23237;DHT22;11787;52.018;8.570;2023-03-14T04:22:26;9.10;99.90
23237;DHT22;11787;52.018;8.570;2023-03-14T04:24:51;9.10;99.90
23237;DHT22;11787;52.018;8.570;2023-03-14T04:27:17;9.10;99.90
23237;DHT22;11787;52.018;8.570;2023-03-14T04:29:42;9.10;99.90
23237;DHT22;11787;52.018;8.570;2023-03-14T04:32:08;9.10;99.90
23237;DHT22;11787;52.018;8.570;2023-03-14T04:34:33;9.00;99.90
23237;DHT22;11787;52.018;8.570;2023-03-14T04:36:59;9.10;99.90
23237;DHT22;11787;52.018;8.570;2023-03-14T04:39:24;9.00;99.90
23237;DHT22;11787;52.018;8.570;2023-03-14T04:41:50;9.00;99.90
23237;DHT22;11787;52.018;8.570;2023-03-14T04:44:15;9.00;99.90
23237;DHT22;11787;52.018;8.570;2023-03-14T04:46:41;9.00;99.90
23237;DHT22;11787;52.018;8.570;2023-03-14T04:49:06;8.90;99.90
23237;DHT22;11787;52.018;8.570;2023-03-14T04:51:32;8.90;99.90
23237;DHT22;11787;52.018;8.570;2023-03-14T04:53:57;9.00;99.90
23237;DHT22;11787;52.018;8.570;2023-03-14T04:56:23;8.90;99.90
23237;DHT22;11787;52.018;8.570;2023-03-14T04:58:49;8.90;99.90
23237;DHT22;11787;52.018;8.570;2023-03-14T05:01:14;8.90;99.90
23237;DHT22;11787;52.018;8.570;2023-03-14T05:03:40;8.90;99.90
23237;DHT22;11787;52.018;8.570;2023-03-14T05:06:05;8.90;99.90
23237;DHT22;11787;52.018;8.570;2023-03-14T05:08:31;8.90;99.90
23237;DHT22;11787;52.018;8.570;2023-03-14T05:10:57;8.90;99.90
23237;DHT22;11787;52.018;8.570;2023-03-14T05:13:23;8.90;99.90
23237;DHT22;11787;52.018;8.570;2023-03-14T05:15:49;9.00;99.90
23237;DHT22;11787;52.018;8.570;2023-03-14T05:18:16;9.00;99.90
23237;DHT22;11787;52.018;8.570;2023-03-14T05:20:41;9.00;99.90
23237;DHT22;11787;52.018;8.570;2023-03-14T05:23:08;9.00;99.90
23237;DHT22;11787;52.018;8.570;2023-03-14T05:25:34;9.00;99.90
23237;DHT22;11787;52.018;8.570;2023-03-14T05:27:59;9.10;99.90
23237;DHT22;11787;52.018;8.570;2023-03-14T05:30:25;9.10;99.90
23237;DHT22;11787;52.018;8.570;2023-03-14T05:32:50;9.10;99.90
23237;DHT22;11787;52.018;8.570;2023-03-14T05:35:16;9.10;99.90
23237;DHT22;11787;52.018;8.570;2023-03-14T05:37:42;9.10;99.90
23237;DHT22;11787;52.018;8.570;2023-03-14T05:40:07;9.10;99.90
23237;DHT22;11787;52.018;8.570;2023-03-14T05:42:34;9.10;99.90
23237;DHT22;11787;52.018;8.570;2023-03-14T05:44:59;9.10;99.90
23237;DHT22;11787;52.018;8.570;2023-03-14T05:47:25;9.10;99.90
23237;DHT22;11787;52.018;8.570;2023-03-14T05:49:50;9.10;99.90
23237;DHT22;11787;52.018;8.570;2023-03-14T05:52:16;9.10;99.90
23237;DHT22;11787;52.018;8.570;2023-03-14T05:54:41;9.20;99.90
23237;DHT22;11787;52.018;8.570;2023-03-14T05:57:07;9.10;99.90
23237;DHT22;11787;52.018;8.570;2023-03-14T05:59:32;9.10;99.90
23237;DHT22;11787;52.018;8.570;2023-03-14T06:01:58;9.10;99.90
23237;DHT22;11787;52.018;8.570;2023-03-14T06:04:23;9.10;99.90
23237;DHT22;11787;52.018;8.570;2023-03-14T06:06:49;9.10;99.90
23237;DHT22;11787;52.018;8.570;2023-03-14T06:09:14;9.10;99.90
23237;DHT22;11787;52.018;8.570;2023-03-14T06:11:40;9.10;99.90
23237;DHT22;11787;52.018;8.570;2023-03-14T06:14:06;9.10;99.90
23237;DHT22;11787;52.018;8.570;2023-03-14T06:16:31;9.10;99.90
23237;DHT22;11787;52.018;8.570;2023-03-14T06:18:57;9.10;99.90
23237;DHT22;11787;52.018;8.570;2023-03-14T06:21:22;9.10;99.90
23237;DHT22;11787;52.018;8.570;2023-03-14T06:23:48;9.10;99.90
23237;DHT22;11787;52.018;8.570;2023-03-14T06:26:13;9.00;99.90
23237;DHT22;11787;52.018;8.570;2023-03-14T06:28:39;9.00;99.90
23237;DHT22;11787;52.018;8.570;2023-03-14T06:31:05;9.10;99.90
23237;DHT22;11787;52.018;8.570;2023-03-14T06:33:30;9.00;99.90
23237;DHT22;11787;52.018;8.570;2023-03-14T06:35:56;9.00;99.90
23237;DHT22;11787;52.018;8.570;2023-03-14T06:38:21;9.00;99.90
23237;DHT22;11787;52.018;8.570;2023-03-14T06:40:47;8.90;99.90
23237;DHT22;11787;52.018;8.570;2023-03-14T06:43:12;9.00;99.90
23237;DHT22;11787;52.018;8.570;2023-03-14T06:45:38;8.90;99.90
23237;DHT22;11787;52.018;8.570;2023-03-14T06:48:03;8.90;99.90
23237;DHT22;11787;52.018;8.570;2023-03-14T06:50:29;8.80;99.90
23237;DHT22;11787;52.018;8.570;2023-03-14T06:52:54;8.80;99.90
23237;DHT22;11787;52.018;8.570;2023-03-14T06:55:20;8.80;99.90
23237;DHT22;11787;52.018;8.570;2023-03-14T06:57:46;8.80;99.90
23237;DHT22;11787;52.018;8.570;2023-03-14T07:00:12;8.80;99.90
23237;DHT22;11787;52.018;8.570;2023-03-14T07:02:38;8.80;99.90
23237;DHT22;11787;52.018;8.570;2023-03-14T07:05:03;8.80;99.90
23237;DHT22;11787;52.018;8.570;2023-03-14T07:07:29;8.80;99.90
23237;DHT22;11787;52.018;8.570;2023-03-14T07:09:54;8.90;99.90
23237;DHT22;11787;52.018;8.570;2023-03-14T07:12:20;8.90;99.90
23237;DHT22;11787;52.018;8.570;2023-03-14T07:14:45;8.90;99.90
23237;DHT22;11787;52.018;8.570;2023-03-14T07:17:11;8.90;99.90
23237;DHT22;11787;52.018;8.570;2023-03-14T07:19:36;8.90;99.90
23237;DHT22;11787;52.018;8.570;2023-03-14T07:22:04;8.80;99.90
23237;DHT22;11787;52.018;8.570;2023-03-14T07:24:29;8.80;99.90
23237;DHT22;11787;52.018;8.570;2023-03-14T07:26:55;8.80;99.90
23237;DHT22;11787;52.018;8.570;2023-03-14T07:29:20;8.80;99.90
23237;DHT22;11787;52.018;8.570;2023-03-14T07:31:46;8.80;99.90
23237;DHT22;11787;52.018;8.570;2023-03-14T07:34:11;8.80;99.90
23237;DHT22;11787;52.018;8.570;2023-03-14T07:36:37;8.80;99.90
23237;DHT22;11787;52.018;8.570;2023-03-14T07:39:02;8.80;99.90
23237;DHT22;11787;52.018;8.570;2023-03-14T07:41:29;8.80;99.90
23237;DHT22;11787;52.018;8.570;2023-03-14T07:43:55;8.80;99.90
23237;DHT22;11787;52.018;8.570;2023-03-14T07:46:20;8.90;99.90
23237;DHT22;11787;52.018;8.570;2023-03-14T07:48:46;9.00;99.90
23237;DHT22;11787;52.018;8.570;2023-03-14T07:51:11;9.00;99.90
23237;DHT22;11787;52.018;8.570;2023-03-14T07:53:37;9.10;99.90
23237;DHT22;11787;52.018;8.570;2023-03-14T07:56:03;9.00;99.90
23237;DHT22;11787;52.018;8.570;2023-03-14T07:58:28;9.10;99.90
23237;DHT22;11787;52.018;8.570;2023-03-14T08:00:54;9.20;99.90
23237;DHT22;11787;52.018;8.570;2023-03-14T08:03:20;9.30;99.90
23237;DHT22;11787;52.018;8.570;2023-03-14T08:05:48;9.30;99.90
23237;DHT22;11787;52.018;8.570;2023-03-14T08:08:14;9.30;99.90
23237;DHT22;11787;52.018;8.570;2023-03-14T08:10:39;9.30;99.90
23237;DHT22;11787;52.018;8.570;2023-03-14T08:13:05;9.30;99.90
23237;DHT22;11787;52.018;8.570;2023-03-14T08:15:30;9.40;99.90
23237;DHT22;11787;52.018;8.570;2023-03-14T08:17:57;9.30;99.90
23237;DHT22;11787;52.018;8.570;2023-03-14T08:20:24;9.40;99.90
23237;DHT22;11787;52.018;8.570;2023-03-14T08:22:50;9.40;99.90
23237;DHT22;11787;52.018;8.570;2023-03-14T08:25:16;9.40;99.90
23237;DHT22;11787;52.018;8.570;2023-03-14T08:27:42;9.40;99.90
23237;DHT22;11787;52.018;8.570;2023-03-14T08:30:08;9.40;99.90
23237;DHT22;11787;52.018;8.570;2023-03-14T08:32:34;9.40;99.90
23237;DHT22;11787;52.018;8.570;2023-03-14T08:35:00;9.40;99.90
23237;DHT22;11787;52.018;8.570;2023-03-14T08:37:25;9.40;99.90
23237;DHT22;11787;52.018;8.570;2023-03-14T08:39:51;9.50;99.90
23237;DHT22;11787;52.018;8.570;2023-03-14T08:42:17;9.50;99.90
23237;DHT22;11787;52.018;8.570;2023-03-14T08:44:43;9.40;99.90
23237;DHT22;11787;52.018;8.570;2023-03-14T08:47:09;9.40;99.90
23237;DHT22;11787;52.018;8.570;2023-03-14T08:49:34;9.50;99.90
23237;DHT22;11787;52.018;8.570;2023-03-14T08:52:01;9.50;99.90
23237;DHT22;11787;52.018;8.570;2023-03-14T08:54:26;9.60;99.90
23237;DHT22;11787;52.018;8.570;2023-03-14T08:56:52;9.60;99.90
23237;DHT22;11787;52.018;8.570;2023-03-14T08:59:17;9.60;99.90
23237;DHT22;11787;52.018;8.570;2023-03-14T09:01:43;9.70;99.90
23237;DHT22;11787;52.018;8.570;2023-03-14T09:04:08;9.80;99.90
23237;DHT22;11787;52.018;8.570;2023-03-14T09:06:34;9.80;99.90
23237;DHT22;11787;52.018;8.570;2023-03-14T09:09:00;9.80;99.90
23237;DHT22;11787;52.018;8.570;2023-03-14T09:11:26;9.80;99.90
23237;DHT22;11787;52.018;8.570;2023-03-14T09:13:52;9.90;99.90
23237;DHT22;11787;52.018;8.570;2023-03-14T09:16:17;9.90;99.90
23237;DHT22;11787;52.018;8.570;2023-03-14T09:18:43;9.90;99.90
23237;DHT22;11787;52.018;8.570;2023-03-14T09:21:08;9.90;99.90
23237;DHT22;11787;52.018;8.570;2023-03-14T09:23:34;10.00;99.90
23237;DHT22;11787;52.018;8.570;2023-03-14T09:26:00;10.00;99.90
23237;DHT22;11787;52.018;8.570;2023-03-14T09:28:26;10.10;99.90
23237;DHT22;11787;52.018;8.570;2023-03-14T09:30:51;10.10;99.90
23237;DHT22;11787;52.018;8.570;2023-03-14T09:33:17;10.20;99.90
23237;DHT22;11787;52.018;8.570;2023-03-14T09:35:43;10.20;99.90
23237;DHT22;11787;52.018;8.570;2023-03-14T09:38:08;10.20;99.90
23237;DHT22;11787;52.018;8.570;2023-03-14T09:40:34;10.30;99.90
23237;DHT22;11787;52.018;8.570;2023-03-14T09:43:01;10.40;99.90
23237;DHT22;11787;52.018;8.570;2023-03-14T09:47:55;10.50;99.90
23237;DHT22;11787;52.018;8.570;2023-03-14T09:50:21;10.60;99.90
23237;DHT22;11787;52.018;8.570;2023-03-14T09:52:48;10.50;99.90
23237;DHT22;11787;52.018;8.570;2023-03-14T09:55:21;10.50;99.90
23237;DHT22;11787;52.018;8.570;2023-03-14T09:57:47;10.60;99.90
23237;DHT22;11787;52.018;8.570;2023-03-14T10:00:15;10.60;99.90
23237;DHT22;11787;52.018;8.570;2023-03-14T10:02:43;10.60;99.90
23237;DHT22;11787;52.018;8.570;2023-03-14T10:05:16;10.70;99.90
23237;DHT22;11787;52.018;8.570;2023-03-14T10:07:42;10.60;99.90
23237;DHT22;11787;52.018;8.570;2023-03-14T10:10:12;10.60;99.90
23237;DHT22;11787;52.018;8.570;2023-03-14T10:12:39;10.60;99.90
23237;DHT22;11787;52.018;8.570;2023-03-14T10:15:06;10.60;99.90
23237;DHT22;11787;52.018;8.570;2023-03-14T10:18:10;10.50;99.90
23237;DHT22;11787;52.018;8.570;2023-03-14T10:20:32;10.50;99.90
23237;DHT22;11787;52.018;8.570;2023-03-14T10:23:21;10.50;99.90
23237;DHT22;11787;52.018;8.570;2023-03-14T10:31:04;10.60;99.90
23237;DHT22;11787;52.018;8.570;2023-03-14T10:33:34;10.60;99.90
23237;DHT22;11787;52.018;8.570;2023-03-14T10:38:29;10.60;99.90
23237;DHT22;11787;52.018;8.570;2023-03-14T10:40:55;10.60;99.90
23237;DHT22;11787;52.018;8.570;2023-03-14T10:43:25;10.50;99.90
23237;DHT22;11787;52.018;8.570;2023-03-14T10:45:54;9.90;99.90
23237;DHT22;11787;52.018;8.570;2023-03-14T10:48:30;9.40;99.90
23237;DHT22;11787;52.018;8.570;2023-03-14T10:53:22;9.20;99.90
23237;DHT22;11787;52.018;8.570;2023-03-14T10:55:47;9.10;99.90
23237;DHT22;11787;52.018;8.570;2023-03-14T10:58:33;8.90;99.90
23237;DHT22;11787;52.018;8.570;2023-03-14T11:01:03;8.90;99.90
23237;DHT22;11787;52.018;8.570;2023-03-14T11:03:33;8.80;99.90
23237;DHT22;11787;52.018;8.570;2023-03-14T11:10:54;8.30;99.90
23237;DHT22;11787;52.018;8.570;2023-03-14T11:26:55;6.80;99.90
23237;DHT22;11787;52.018;8.570;2023-03-14T11:29:28;6.90;99.90
23237;DHT22;11787;52.018;8.570;2023-03-14T11:32:01;6.70;99.90
23237;DHT22;11787;52.018;8.570;2023-03-14T11:34:28;6.60;99.90
23237;DHT22;11787;52.018;8.570;2023-03-14T11:37:07;6.30;99.90
23237;DHT22;11787;52.018;8.570;2023-03-14T11:39:40;6.10;99.90
23237;DHT22;11787;52.018;8.570;2023-03-14T11:42:16;6.00;99.90
23237;DHT22;11787;52.018;8.570;2023-03-14T11:44:46;5.90;99.90
23237;DHT22;11787;52.018;8.570;2023-03-14T11:47:23;5.70;99.90
23237;DHT22;11787;52.018;8.570;2023-03-14T11:49:53;5.40;99.90
23237;DHT22;11787;52.018;8.570;2023-03-14T11:52:36;5.40;99.90
23237;DHT22;11787;52.018;8.570;2023-03-14T11:57:34;5.50;99.90
23237;DHT22;11787;52.018;8.570;2023-03-14T12:00:05;5.50;99.90
23237;DHT22;11787;52.018;8.570;2023-03-14T12:05:36;5.60;99.90
23237;DHT22;11787;52.018;8.570;2023-03-14T12:13:09;5.60;99.90
23237;DHT22;11787;52.018;8.570;2023-03-14T12:15:40;5.50;99.90
23237;DHT22;11787;52.018;8.570;2023-03-14T12:20:53;5.50;99.90
23237;DHT22;11787;52.018;8.570;2023-03-14T12:23:20;5.70;99.90
23237;DHT22;11787;52.018;8.570;2023-03-14T12:25:46;5.80;99.90
23237;DHT22;11787;52.018;8.570;2023-03-14T12:28:29;5.90;99.90
23237;DHT22;11787;52.018;8.570;2023-03-14T12:30:55;5.70;99.90
23237;DHT22;11787;52.018;8.570;2023-03-14T12:33:27;5.80;99.90
23237;DHT22;11787;52.018;8.570;2023-03-14T12:36:04;5.90;99.90
23237;DHT22;11787;52.018;8.570;2023-03-14T12:43:34;6.00;99.90
23237;DHT22;11787;52.018;8.570;2023-03-14T13:05:03;6.20;99.90
23237;DHT22;11787;52.018;8.570;2023-03-14T13:08:19;6.20;99.90
23237;DHT22;11787;52.018;8.570;2023-03-14T13:10:24;6.30;99.90
23237;DHT22;11787;52.018;8.570;2023-03-14T13:15:39;6.40;99.90
23237;DHT22;11787;52.018;8.570;2023-03-14T13:18:17;6.40;99.90
23237;DHT22;11787;52.018;8.570;2023-03-14T13:20:59;6.40;99.90
23237;DHT22;11787;52.018;8.570;2023-03-14T13:23:31;6.30;99.90
23237;DHT22;11787;52.018;8.570;2023-03-14T13:25:59;6.10;99.90
23237;DHT22;11787;52.018;8.570;2023-03-14T13:28:26;5.70;99.90
23237;DHT22;11787;52.018;8.570;2023-03-14T13:30:58;5.00;99.90
23237;DHT22;11787;52.018;8.570;2023-03-14T13:33:24;5.00;99.90
23237;DHT22;11787;52.018;8.570;2023-03-14T13:36:02;4.90;99.90
23237;DHT22;11787;52.018;8.570;2023-03-14T13:38:31;5.00;99.90
23237;DHT22;11787;52.018;8.570;2023-03-14T13:40:59;5.00;99.90
23237;DHT22;11787;52.018;8.570;2023-03-14T13:43:39;5.20;99.90
23237;DHT22;11787;52.018;8.570;2023-03-14T13:49:04;5.20;99.90
23237;DHT22;11787;52.018;8.570;2023-03-14T13:51:31;5.50;99.90
23237;DHT22;11787;52.018;8.570;2023-03-14T13:54:00;5.60;99.90
23237;DHT22;11787;52.018;8.570;2023-03-14T13:56:28;5.60;99.90
23237;DHT22;11787;52.018;8.570;2023-03-14T13:58:54;5.70;99.90
23237;DHT22;11787;52.018;8.570;2023-03-14T14:01:23;5.80;99.90
23237;DHT22;11787;52.018;8.570;2023-03-14T14:03:52;5.80;99.90
23237;DHT22;11787;52.018;8.570;2023-03-14T14:06:37;5.80;99.90
23237;DHT22;11787;52.018;8.570;2023-03-14T14:09:24;5.90;99.90
23237;DHT22;11787;52.018;8.570;2023-03-14T14:14:37;6.10;99.90
23237;DHT22;11787;52.018;8.570;2023-03-14T14:17:07;6.20;99.90
23237;DHT22;11787;52.018;8.570;2023-03-14T14:19:34;6.30;99.90
23237;DHT22;11787;52.018;8.570;2023-03-14T14:22:01;6.50;99.90
23237;DHT22;11787;52.018;8.570;2023-03-14T14:24:32;6.50;99.90
23237;DHT22;11787;52.018;8.570;2023-03-14T14:29:41;6.40;99.90
23237;DHT22;11787;52.018;8.570;2023-03-14T14:34:39;6.50;99.90
23237;DHT22;11787;52.018;8.570;2023-03-14T14:37:05;6.50;99.90
23237;DHT22;11787;52.018;8.570;2023-03-14T14:39:39;6.40;99.90
23237;DHT22;11787;52.018;8.570;2023-03-14T14:42:14;6.30;99.90
23237;DHT22;11787;52.018;8.570;2023-03-14T14:44:41;6.30;99.90
23237;DHT22;11787;52.018;8.570;2023-03-14T14:47:13;6.30;99.90
23237;DHT22;11787;52.018;8.570;2023-03-14T14:49:39;6.30;99.90
23237;DHT22;11787;52.018;8.570;2023-03-14T14:52:20;6.40;99.90
23237;DHT22;11787;52.018;8.570;2023-03-14T14:54:54;6.40;99.90
23237;DHT22;11787;52.018;8.570;2023-03-14T14:57:52;6.50;99.90
23237;DHT22;11787;52.018;8.570;2023-03-14T15:00:25;6.50;99.90
23237;DHT22;11787;52.018;8.570;2023-03-14T15:02:55;6.50;99.90
23237;DHT22;11787;52.018;8.570;2023-03-14T15:05:26;6.40;99.90
23237;DHT22;11787;52.018;8.570;2023-03-14T15:07:53;6.30;99.90
23237;DHT22;11787;52.018;8.570;2023-03-14T15:10:21;6.20;99.90
23237;DHT22;11787;52.018;8.570;2023-03-14T15:12:48;6.20;99.90
23237;DHT22;11787;52.018;8.570;2023-03-14T15:15:15;6.20;99.90
23237;DHT22;11787;52.018;8.570;2023-03-14T15:17:40;6.20;99.90
23237;DHT22;11787;52.018;8.570;2023-03-14T15:20:11;6.20;99.90
23237;DHT22;11787;52.018;8.570;2023-03-14T15:22:39;6.20;99.90
23237;DHT22;11787;52.018;8.570;2023-03-14T15:25:05;6.30;99.90
23237;DHT22;11787;52.018;8.570;2023-03-14T15:27:31;6.20;99.90
23237;DHT22;11787;52.018;8.570;2023-03-14T15:29:57;6.20;99.90
23237;DHT22;11787;52.018;8.570;2023-03-14T15:32:24;6.20;99.90
23237;DHT22;11787;52.018;8.570;2023-03-14T15:34:54;6.20;99.90
23237;DHT22;11787;52.018;8.570;2023-03-14T15:37:19;6.30;99.90
23237;DHT22;11787;52.018;8.570;2023-03-14T15:39:45;6.40;99.90
23237;DHT22;11787;52.018;8.570;2023-03-14T15:42:11;6.40;99.90
23237;DHT22;11787;52.018;8.570;2023-03-14T15:44:37;6.50;99.90
23237;DHT22;11787;52.018;8.570;2023-03-14T15:47:04;6.50;99.90
23237;DHT22;11787;52.018;8.570;2023-03-14T15:49:31;6.60;99.90
23237;DHT22;11787;52.018;8.570;2023-03-14T15:51:57;6.50;99.90
23237;DHT22;11787;52.018;8.570;2023-03-14T15:54:24;6.50;99.90
23237;DHT22;11787;52.018;8.570;2023-03-14T15:56:54;6.50;99.90
23237;DHT22;11787;52.018;8.570;2023-03-14T15:59:20;6.50;99.90
23237;DHT22;11787;52.018;8.570;2023-03-14T16:01:46;6.40;99.90
23237;DHT22;11787;52.018;8.570;2023-03-14T16:04:13;6.40;99.90
23237;DHT22;11787;52.018;8.570;2023-03-14T16:06:39;6.40;99.90
23237;DHT22;11787;52.018;8.570;2023-03-14T16:09:05;6.40;99.90
23237;DHT22;11787;52.018;8.570;2023-03-14T16:11:30;6.40;99.90
23237;DHT22;11787;52.018;8.570;2023-03-14T16:13:56;6.40;99.90
23237;DHT22;11787;52.018;8.570;2023-03-14T16:16:22;6.40;99.90
23237;DHT22;11787;52.018;8.570;2023-03-14T16:18:47;6.40;99.90
23237;DHT22;11787;52.018;8.570;2023-03-14T16:21:18;6.40;99.90
23237;DHT22;11787;52.018;8.570;2023-03-14T16:23:44;6.40;99.90
23237;DHT22;11787;52.018;8.570;2023-03-14T16:26:18;6.40;99.90
23237;DHT22;11787;52.018;8.570;2023-03-14T16:28:45;6.30;99.90
23237;DHT22;11787;52.018;8.570;2023-03-14T16:31:13;6.30;99.90
23237;DHT22;11787;52.018;8.570;2023-03-14T16:33:39;6.20;99.90
23237;DHT22;11787;52.018;8.570;2023-03-14T16:36:07;6.20;99.90
23237;DHT22;11787;52.018;8.570;2023-03-14T16:38:34;6.20;99.90
23237;DHT22;11787;52.018;8.570;2023-03-14T16:41:06;6.20;99.90
23237;DHT22;11787;52.018;8.570;2023-03-14T16:43:32;6.20;99.90
23237;DHT22;11787;52.018;8.570;2023-03-14T16:45:59;6.20;99.90
23237;DHT22;11787;52.018;8.570;2023-03-14T16:48:26;6.10;99.90
23237;DHT22;11787;52.018;8.570;2023-03-14T16:50:52;6.10;99.90
23237;DHT22;11787;52.018;8.570;2023-03-14T16:53:18;6.00;99.90
23237;DHT22;11787;52.018;8.570;2023-03-14T16:55:43;6.00;99.90
23237;DHT22;11787;52.018;8.570;2023-03-14T16:58:09;5.90;99.90
23237;DHT22;11787;52.018;8.570;2023-03-14T17:00:35;5.90;99.90
23237;DHT22;11787;52.018;8.570;2023-03-14T17:03:01;5.80;99.90
23237;DHT22;11787;52.018;8.570;2023-03-14T17:05:26;5.70;99.90
23237;DHT22;11787;52.018;8.570;2023-03-14T17:07:52;5.70;99.90
23237;DHT22;11787;52.018;8.570;2023-03-14T17:10:18;5.60;99.90
23237;DHT22;11787;52.018;8.570;2023-03-14T17:12:44;5.60;99.90
23237;DHT22;11787;52.018;8.570;2023-03-14T17:15:10;5.60;99.90
23237;DHT22;11787;52.018;8.570;2023-03-14T17:17:36;5.50;99.90